<?xml version="1.0" encoding="UTF-8" standalone="no" ?>
<gpx xmlns="http://www.topografix.com/GPX/1/1" xmlns:xsi="http://www.w3.org/2001/XMLSchema-instance" xsi:schemaLocation="http://www.topografix.com/GPX/1/1 http://www.topografix.com/GPX/1/1/gpx.xsd" version="1.1" creator="VisuGPX - https://www.visugpx.com">
  <metadata>
    <name>Randonnée du 03/06/2020 à 17:15</name>
    <desc><![CDATA[9 kms]]></desc>
  </metadata>
  <trk>
    <name><![CDATA[Randonnée du 03/06/2020 à 17:15]]></name>
    <trkseg>
      <trkpt lat="48.75098" lon="1.91644">
        <ele>223</ele>
        <time>2020-06-03T17:15:34+02:00</time>
      </trkpt>
      <trkpt lat="48.75083" lon="1.91615">
        <ele>229</ele>
        <time>2020-06-03T17:16:11+02:00</time>
      </trkpt>
      <trkpt lat="48.75075" lon="1.91582">
        <ele>229</ele>
        <time>2020-06-03T17:16:31+02:00</time>
      </trkpt>
      <trkpt lat="48.75071" lon="1.91548">
        <ele>229</ele>
        <time>2020-06-03T17:16:53+02:00</time>
      </trkpt>
      <trkpt lat="48.75045" lon="1.91547">
        <ele>228</ele>
        <time>2020-06-03T17:17:11+02:00</time>
      </trkpt>
      <trkpt lat="48.75023" lon="1.91558">
        <ele>228</ele>
        <time>2020-06-03T17:17:29+02:00</time>
      </trkpt>
      <trkpt lat="48.75001" lon="1.91575">
        <ele>227</ele>
        <time>2020-06-03T17:17:46+02:00</time>
      </trkpt>
      <trkpt lat="48.74978" lon="1.91575">
        <ele>227</ele>
        <time>2020-06-03T17:18:06+02:00</time>
      </trkpt>
      <trkpt lat="48.74956" lon="1.91584">
        <ele>227</ele>
        <time>2020-06-03T17:18:27+02:00</time>
      </trkpt>
      <trkpt lat="48.74935" lon="1.91595">
        <ele>227</ele>
        <time>2020-06-03T17:18:45+02:00</time>
      </trkpt>
      <trkpt lat="48.74913" lon="1.91604">
        <ele>226</ele>
        <time>2020-06-03T17:19:09+02:00</time>
      </trkpt>
      <trkpt lat="48.74899" lon="1.91632">
        <ele>226</ele>
        <time>2020-06-03T17:19:30+02:00</time>
      </trkpt>
      <trkpt lat="48.74879" lon="1.91649">
        <ele>226</ele>
        <time>2020-06-03T17:19:49+02:00</time>
      </trkpt>
      <trkpt lat="48.74856" lon="1.91658">
        <ele>226</ele>
        <time>2020-06-03T17:20:10+02:00</time>
      </trkpt>
      <trkpt lat="48.74837" lon="1.91675">
        <ele>225</ele>
        <time>2020-06-03T17:20:26+02:00</time>
      </trkpt>
      <trkpt lat="48.74816" lon="1.91691">
        <ele>225</ele>
        <time>2020-06-03T17:20:46+02:00</time>
      </trkpt>
      <trkpt lat="48.74795" lon="1.91701">
        <ele>225</ele>
        <time>2020-06-03T17:21:04+02:00</time>
      </trkpt>
      <trkpt lat="48.74777" lon="1.91723">
        <ele>224</ele>
        <time>2020-06-03T17:21:24+02:00</time>
      </trkpt>
      <trkpt lat="48.74758" lon="1.91741">
        <ele>224</ele>
        <time>2020-06-03T17:21:40+02:00</time>
      </trkpt>
      <trkpt lat="48.74738" lon="1.91759">
        <ele>224</ele>
        <time>2020-06-03T17:22:02+02:00</time>
      </trkpt>
      <trkpt lat="48.74717" lon="1.91773">
        <ele>223</ele>
        <time>2020-06-03T17:22:21+02:00</time>
      </trkpt>
      <trkpt lat="48.74701" lon="1.91797">
        <ele>223</ele>
        <time>2020-06-03T17:22:42+02:00</time>
      </trkpt>
      <trkpt lat="48.74686" lon="1.91824">
        <ele>223</ele>
        <time>2020-06-03T17:22:59+02:00</time>
      </trkpt>
      <trkpt lat="48.74666" lon="1.91844">
        <ele>223</ele>
        <time>2020-06-03T17:23:21+02:00</time>
      </trkpt>
      <trkpt lat="48.74646" lon="1.91861">
        <ele>223</ele>
        <time>2020-06-03T17:23:40+02:00</time>
      </trkpt>
      <trkpt lat="48.74627" lon="1.91882">
        <ele>223</ele>
        <time>2020-06-03T17:23:58+02:00</time>
      </trkpt>
      <trkpt lat="48.74607" lon="1.91901">
        <ele>223</ele>
        <time>2020-06-03T17:24:18+02:00</time>
      </trkpt>
      <trkpt lat="48.74611" lon="1.91936">
        <ele>223</ele>
        <time>2020-06-03T17:24:44+02:00</time>
      </trkpt>
      <trkpt lat="48.74593" lon="1.91959">
        <ele>223</ele>
        <time>2020-06-03T17:25:44+02:00</time>
      </trkpt>
      <trkpt lat="48.7457" lon="1.91967">
        <ele>223</ele>
        <time>2020-06-03T17:25:54+02:00</time>
      </trkpt>
      <trkpt lat="48.74553" lon="1.91993">
        <ele>223</ele>
        <time>2020-06-03T17:26:09+02:00</time>
      </trkpt>
      <trkpt lat="48.74537" lon="1.92019">
        <ele>223</ele>
        <time>2020-06-03T17:26:29+02:00</time>
      </trkpt>
      <trkpt lat="48.74518" lon="1.9204">
        <ele>223</ele>
        <time>2020-06-03T17:26:47+02:00</time>
      </trkpt>
      <trkpt lat="48.74499" lon="1.9206">
        <ele>223</ele>
        <time>2020-06-03T17:27:04+02:00</time>
      </trkpt>
      <trkpt lat="48.74481" lon="1.92082">
        <ele>222</ele>
        <time>2020-06-03T17:27:25+02:00</time>
      </trkpt>
      <trkpt lat="48.74462" lon="1.92102">
        <ele>222</ele>
        <time>2020-06-03T17:28:04+02:00</time>
      </trkpt>
      <trkpt lat="48.7444" lon="1.9211">
        <ele>222</ele>
        <time>2020-06-03T17:28:21+02:00</time>
      </trkpt>
      <trkpt lat="48.7442" lon="1.92128">
        <ele>222</ele>
        <time>2020-06-03T17:28:35+02:00</time>
      </trkpt>
      <trkpt lat="48.74397" lon="1.92134">
        <ele>222</ele>
        <time>2020-06-03T17:28:59+02:00</time>
      </trkpt>
      <trkpt lat="48.74374" lon="1.92112">
        <ele>222</ele>
        <time>2020-06-03T17:29:36+02:00</time>
      </trkpt>
      <trkpt lat="48.74363" lon="1.92142">
        <ele>222</ele>
        <time>2020-06-03T17:30:20+02:00</time>
      </trkpt>
      <trkpt lat="48.74355" lon="1.92174">
        <ele>222</ele>
        <time>2020-06-03T17:30:39+02:00</time>
      </trkpt>
      <trkpt lat="48.74336" lon="1.92194">
        <ele>221</ele>
        <time>2020-06-03T17:31:25+02:00</time>
      </trkpt>
      <trkpt lat="48.74318" lon="1.92216">
        <ele>221</ele>
        <time>2020-06-03T17:31:58+02:00</time>
      </trkpt>
      <trkpt lat="48.74309" lon="1.92248">
        <ele>221</ele>
        <time>2020-06-03T17:32:19+02:00</time>
      </trkpt>
      <trkpt lat="48.74302" lon="1.92281">
        <ele>220</ele>
        <time>2020-06-03T17:32:35+02:00</time>
      </trkpt>
      <trkpt lat="48.74299" lon="1.92315">
        <ele>220</ele>
        <time>2020-06-03T17:32:56+02:00</time>
      </trkpt>
      <trkpt lat="48.74281" lon="1.92338">
        <ele>219</ele>
        <time>2020-06-03T17:33:23+02:00</time>
      </trkpt>
      <trkpt lat="48.74262" lon="1.92357">
        <ele>218</ele>
        <time>2020-06-03T17:33:52+02:00</time>
      </trkpt>
      <trkpt lat="48.74246" lon="1.92384">
        <ele>218</ele>
        <time>2020-06-03T17:34:08+02:00</time>
      </trkpt>
      <trkpt lat="48.74229" lon="1.92407">
        <ele>218</ele>
        <time>2020-06-03T17:34:21+02:00</time>
      </trkpt>
      <trkpt lat="48.74217" lon="1.92438">
        <ele>218</ele>
        <time>2020-06-03T17:34:47+02:00</time>
      </trkpt>
      <trkpt lat="48.74209" lon="1.9247">
        <ele>217</ele>
        <time>2020-06-03T17:35:07+02:00</time>
      </trkpt>
      <trkpt lat="48.74224" lon="1.92499">
        <ele>217</ele>
        <time>2020-06-03T17:35:54+02:00</time>
      </trkpt>
      <trkpt lat="48.74241" lon="1.92524">
        <ele>216</ele>
        <time>2020-06-03T17:36:18+02:00</time>
      </trkpt>
      <trkpt lat="48.74255" lon="1.9255">
        <ele>215</ele>
        <time>2020-06-03T17:36:41+02:00</time>
      </trkpt>
      <trkpt lat="48.74262" lon="1.92583">
        <ele>215</ele>
        <time>2020-06-03T17:36:57+02:00</time>
      </trkpt>
      <trkpt lat="48.7427" lon="1.92618">
        <ele>214</ele>
        <time>2020-06-03T17:37:17+02:00</time>
      </trkpt>
      <trkpt lat="48.74287" lon="1.92641">
        <ele>213</ele>
        <time>2020-06-03T17:37:38+02:00</time>
      </trkpt>
      <trkpt lat="48.74304" lon="1.92663">
        <ele>212</ele>
        <time>2020-06-03T17:37:57+02:00</time>
      </trkpt>
      <trkpt lat="48.74326" lon="1.92675">
        <ele>211</ele>
        <time>2020-06-03T17:38:19+02:00</time>
      </trkpt>
      <trkpt lat="48.74339" lon="1.92703">
        <ele>210</ele>
        <time>2020-06-03T17:38:44+02:00</time>
      </trkpt>
      <trkpt lat="48.74319" lon="1.9272">
        <ele>209</ele>
        <time>2020-06-03T17:39:05+02:00</time>
      </trkpt>
      <trkpt lat="48.74309" lon="1.92753">
        <ele>209</ele>
        <time>2020-06-03T17:39:25+02:00</time>
      </trkpt>
      <trkpt lat="48.74292" lon="1.92781">
        <ele>209</ele>
        <time>2020-06-03T17:39:40+02:00</time>
      </trkpt>
      <trkpt lat="48.74272" lon="1.92765">
        <ele>209</ele>
        <time>2020-06-03T17:39:56+02:00</time>
      </trkpt>
      <trkpt lat="48.74263" lon="1.92732">
        <ele>209</ele>
        <time>2020-06-03T17:40:36+02:00</time>
      </trkpt>
      <trkpt lat="48.74242" lon="1.9272">
        <ele>209</ele>
        <time>2020-06-03T17:40:56+02:00</time>
      </trkpt>
      <trkpt lat="48.74222" lon="1.92703">
        <ele>210</ele>
        <time>2020-06-03T17:41:16+02:00</time>
      </trkpt>
      <trkpt lat="48.74206" lon="1.92679">
        <ele>210</ele>
        <time>2020-06-03T17:41:32+02:00</time>
      </trkpt>
      <trkpt lat="48.74186" lon="1.92659">
        <ele>210</ele>
        <time>2020-06-03T17:41:50+02:00</time>
      </trkpt>
      <trkpt lat="48.7417" lon="1.92634">
        <ele>211</ele>
        <time>2020-06-03T17:42:04+02:00</time>
      </trkpt>
      <trkpt lat="48.74148" lon="1.92625">
        <ele>211</ele>
        <time>2020-06-03T17:42:30+02:00</time>
      </trkpt>
      <trkpt lat="48.74124" lon="1.92626">
        <ele>211</ele>
        <time>2020-06-03T17:42:51+02:00</time>
      </trkpt>
      <trkpt lat="48.74101" lon="1.92623">
        <ele>212</ele>
        <time>2020-06-03T17:43:39+02:00</time>
      </trkpt>
      <trkpt lat="48.74078" lon="1.92626">
        <ele>212</ele>
        <time>2020-06-03T17:43:58+02:00</time>
      </trkpt>
      <trkpt lat="48.74056" lon="1.92636">
        <ele>212</ele>
        <time>2020-06-03T17:44:16+02:00</time>
      </trkpt>
      <trkpt lat="48.74036" lon="1.92652">
        <ele>213</ele>
        <time>2020-06-03T17:44:37+02:00</time>
      </trkpt>
      <trkpt lat="48.74015" lon="1.92668">
        <ele>213</ele>
        <time>2020-06-03T17:44:53+02:00</time>
      </trkpt>
      <trkpt lat="48.73994" lon="1.92683">
        <ele>213</ele>
        <time>2020-06-03T17:45:09+02:00</time>
      </trkpt>
      <trkpt lat="48.73976" lon="1.92704">
        <ele>213</ele>
        <time>2020-06-03T17:45:29+02:00</time>
      </trkpt>
      <trkpt lat="48.73963" lon="1.92733">
        <ele>213</ele>
        <time>2020-06-03T17:45:56+02:00</time>
      </trkpt>
      <trkpt lat="48.73972" lon="1.92766">
        <ele>213</ele>
        <time>2020-06-03T17:46:21+02:00</time>
      </trkpt>
      <trkpt lat="48.73995" lon="1.92771">
        <ele>213</ele>
        <time>2020-06-03T17:46:39+02:00</time>
      </trkpt>
      <trkpt lat="48.73981" lon="1.92799">
        <ele>213</ele>
        <time>2020-06-03T17:47:51+02:00</time>
      </trkpt>
      <trkpt lat="48.73959" lon="1.92796">
        <ele>213</ele>
        <time>2020-06-03T17:48:07+02:00</time>
      </trkpt>
      <trkpt lat="48.73936" lon="1.92792">
        <ele>213</ele>
        <time>2020-06-03T17:48:21+02:00</time>
      </trkpt>
      <trkpt lat="48.73914" lon="1.92803">
        <ele>213</ele>
        <time>2020-06-03T17:48:35+02:00</time>
      </trkpt>
      <trkpt lat="48.73908" lon="1.92837">
        <ele>213</ele>
        <time>2020-06-03T17:50:30+02:00</time>
      </trkpt>
      <trkpt lat="48.73889" lon="1.92855">
        <ele>213</ele>
        <time>2020-06-03T17:50:50+02:00</time>
      </trkpt>
      <trkpt lat="48.73868" lon="1.92871">
        <ele>213</ele>
        <time>2020-06-03T17:51:20+02:00</time>
      </trkpt>
      <trkpt lat="48.73847" lon="1.92884">
        <ele>213</ele>
        <time>2020-06-03T17:51:42+02:00</time>
      </trkpt>
      <trkpt lat="48.73825" lon="1.929">
        <ele>213</ele>
        <time>2020-06-03T17:51:58+02:00</time>
      </trkpt>
      <trkpt lat="48.73804" lon="1.92915">
        <ele>213</ele>
        <time>2020-06-03T17:52:10+02:00</time>
      </trkpt>
      <trkpt lat="48.73783" lon="1.92929">
        <ele>213</ele>
        <time>2020-06-03T17:52:30+02:00</time>
      </trkpt>
      <trkpt lat="48.7376" lon="1.9294">
        <ele>213</ele>
        <time>2020-06-03T17:52:47+02:00</time>
      </trkpt>
      <trkpt lat="48.73738" lon="1.92951">
        <ele>213</ele>
        <time>2020-06-03T17:53:01+02:00</time>
      </trkpt>
      <trkpt lat="48.7372" lon="1.92971">
        <ele>215</ele>
        <time>2020-06-03T17:53:23+02:00</time>
      </trkpt>
      <trkpt lat="48.73702" lon="1.92996">
        <ele>216</ele>
        <time>2020-06-03T17:53:52+02:00</time>
      </trkpt>
      <trkpt lat="48.73679" lon="1.93007">
        <ele>217</ele>
        <time>2020-06-03T17:54:03+02:00</time>
      </trkpt>
      <trkpt lat="48.73656" lon="1.93012">
        <ele>218</ele>
        <time>2020-06-03T17:54:24+02:00</time>
      </trkpt>
      <trkpt lat="48.73632" lon="1.93018">
        <ele>219</ele>
        <time>2020-06-03T17:54:44+02:00</time>
      </trkpt>
      <trkpt lat="48.73609" lon="1.93026">
        <ele>220</ele>
        <time>2020-06-03T17:55:02+02:00</time>
      </trkpt>
      <trkpt lat="48.73591" lon="1.93049">
        <ele>222</ele>
        <time>2020-06-03T17:55:22+02:00</time>
      </trkpt>
      <trkpt lat="48.73572" lon="1.93071">
        <ele>223</ele>
        <time>2020-06-03T17:55:42+02:00</time>
      </trkpt>
      <trkpt lat="48.73552" lon="1.9309">
        <ele>225</ele>
        <time>2020-06-03T17:56:01+02:00</time>
      </trkpt>
      <trkpt lat="48.73532" lon="1.93106">
        <ele>226</ele>
        <time>2020-06-03T17:56:16+02:00</time>
      </trkpt>
      <trkpt lat="48.73513" lon="1.93127">
        <ele>228</ele>
        <time>2020-06-03T17:56:37+02:00</time>
      </trkpt>
      <trkpt lat="48.73493" lon="1.93146">
        <ele>230</ele>
        <time>2020-06-03T17:56:56+02:00</time>
      </trkpt>
      <trkpt lat="48.73473" lon="1.93163">
        <ele>231</ele>
        <time>2020-06-03T17:57:13+02:00</time>
      </trkpt>
      <trkpt lat="48.7346" lon="1.93191">
        <ele>232</ele>
        <time>2020-06-03T17:57:34+02:00</time>
      </trkpt>
      <trkpt lat="48.73442" lon="1.93211">
        <ele>233</ele>
        <time>2020-06-03T17:57:51+02:00</time>
      </trkpt>
      <trkpt lat="48.73423" lon="1.93231">
        <ele>234</ele>
        <time>2020-06-03T17:58:12+02:00</time>
      </trkpt>
      <trkpt lat="48.73406" lon="1.93256">
        <ele>235</ele>
        <time>2020-06-03T17:58:32+02:00</time>
      </trkpt>
      <trkpt lat="48.73386" lon="1.93272">
        <ele>236</ele>
        <time>2020-06-03T17:58:48+02:00</time>
      </trkpt>
      <trkpt lat="48.73366" lon="1.93291">
        <ele>236</ele>
        <time>2020-06-03T17:59:06+02:00</time>
      </trkpt>
      <trkpt lat="48.73351" lon="1.93317">
        <ele>236</ele>
        <time>2020-06-03T17:59:55+02:00</time>
      </trkpt>
      <trkpt lat="48.73336" lon="1.93344">
        <ele>236</ele>
        <time>2020-06-03T18:00:14+02:00</time>
      </trkpt>
      <trkpt lat="48.73322" lon="1.93371">
        <ele>237</ele>
        <time>2020-06-03T18:00:36+02:00</time>
      </trkpt>
      <trkpt lat="48.73304" lon="1.93391">
        <ele>237</ele>
        <time>2020-06-03T18:00:56+02:00</time>
      </trkpt>
      <trkpt lat="48.73286" lon="1.93413">
        <ele>237</ele>
        <time>2020-06-03T18:01:17+02:00</time>
      </trkpt>
      <trkpt lat="48.73269" lon="1.93436">
        <ele>237</ele>
        <time>2020-06-03T18:01:32+02:00</time>
      </trkpt>
      <trkpt lat="48.73253" lon="1.9346">
        <ele>237</ele>
        <time>2020-06-03T18:01:54+02:00</time>
      </trkpt>
      <trkpt lat="48.73237" lon="1.93486">
        <ele>236</ele>
        <time>2020-06-03T18:03:17+02:00</time>
      </trkpt>
      <trkpt lat="48.73222" lon="1.93513">
        <ele>235</ele>
        <time>2020-06-03T18:03:40+02:00</time>
      </trkpt>
      <trkpt lat="48.73206" lon="1.9354">
        <ele>234</ele>
        <time>2020-06-03T18:03:58+02:00</time>
      </trkpt>
      <trkpt lat="48.73192" lon="1.93567">
        <ele>234</ele>
        <time>2020-06-03T18:04:18+02:00</time>
      </trkpt>
      <trkpt lat="48.73175" lon="1.9359">
        <ele>233</ele>
        <time>2020-06-03T18:04:36+02:00</time>
      </trkpt>
      <trkpt lat="48.7316" lon="1.93615">
        <ele>233</ele>
        <time>2020-06-03T18:05:12+02:00</time>
      </trkpt>
      <trkpt lat="48.73144" lon="1.9364">
        <ele>232</ele>
        <time>2020-06-03T18:06:14+02:00</time>
      </trkpt>
      <trkpt lat="48.7313" lon="1.93667">
        <ele>232</ele>
        <time>2020-06-03T18:06:32+02:00</time>
      </trkpt>
      <trkpt lat="48.73114" lon="1.93694">
        <ele>231</ele>
        <time>2020-06-03T18:06:53+02:00</time>
      </trkpt>
      <trkpt lat="48.73097" lon="1.93717">
        <ele>231</ele>
        <time>2020-06-03T18:07:18+02:00</time>
      </trkpt>
      <trkpt lat="48.73081" lon="1.93742">
        <ele>231</ele>
        <time>2020-06-03T18:07:40+02:00</time>
      </trkpt>
      <trkpt lat="48.73067" lon="1.93773">
        <ele>231</ele>
        <time>2020-06-03T18:07:57+02:00</time>
      </trkpt>
      <trkpt lat="48.7305" lon="1.93797">
        <ele>231</ele>
        <time>2020-06-03T18:08:13+02:00</time>
      </trkpt>
      <trkpt lat="48.73034" lon="1.93822">
        <ele>231</ele>
        <time>2020-06-03T18:08:31+02:00</time>
      </trkpt>
      <trkpt lat="48.73019" lon="1.9385">
        <ele>230</ele>
        <time>2020-06-03T18:08:51+02:00</time>
      </trkpt>
      <trkpt lat="48.73004" lon="1.93876">
        <ele>230</ele>
        <time>2020-06-03T18:09:11+02:00</time>
      </trkpt>
      <trkpt lat="48.72985" lon="1.93899">
        <ele>230</ele>
        <time>2020-06-03T18:09:30+02:00</time>
      </trkpt>
      <trkpt lat="48.72965" lon="1.93918">
        <ele>230</ele>
        <time>2020-06-03T18:09:48+02:00</time>
      </trkpt>
      <trkpt lat="48.72946" lon="1.93937">
        <ele>230</ele>
        <time>2020-06-03T18:10:06+02:00</time>
      </trkpt>
      <trkpt lat="48.72923" lon="1.93949">
        <ele>230</ele>
        <time>2020-06-03T18:10:25+02:00</time>
      </trkpt>
      <trkpt lat="48.72902" lon="1.93959">
        <ele>230</ele>
        <time>2020-06-03T18:10:46+02:00</time>
      </trkpt>
      <trkpt lat="48.7288" lon="1.93969">
        <ele>230</ele>
        <time>2020-06-03T18:11:29+02:00</time>
      </trkpt>
      <trkpt lat="48.72857" lon="1.93969">
        <ele>230</ele>
        <time>2020-06-03T18:11:47+02:00</time>
      </trkpt>
      <trkpt lat="48.72834" lon="1.93966">
        <ele>230</ele>
        <time>2020-06-03T18:12:05+02:00</time>
      </trkpt>
      <trkpt lat="48.72811" lon="1.93963">
        <ele>229</ele>
        <time>2020-06-03T18:12:23+02:00</time>
      </trkpt>
      <trkpt lat="48.72788" lon="1.93959">
        <ele>229</ele>
        <time>2020-06-03T18:12:39+02:00</time>
      </trkpt>
      <trkpt lat="48.72766" lon="1.93953">
        <ele>229</ele>
        <time>2020-06-03T18:12:56+02:00</time>
      </trkpt>
      <trkpt lat="48.72744" lon="1.93943">
        <ele>228</ele>
        <time>2020-06-03T18:13:13+02:00</time>
      </trkpt>
      <trkpt lat="48.72724" lon="1.93927">
        <ele>227</ele>
        <time>2020-06-03T18:13:34+02:00</time>
      </trkpt>
      <trkpt lat="48.72703" lon="1.93912">
        <ele>227</ele>
        <time>2020-06-03T18:13:53+02:00</time>
      </trkpt>
      <trkpt lat="48.72684" lon="1.93891">
        <ele>226</ele>
        <time>2020-06-03T18:14:10+02:00</time>
      </trkpt>
      <trkpt lat="48.72664" lon="1.93872">
        <ele>226</ele>
        <time>2020-06-03T18:14:28+02:00</time>
      </trkpt>
      <trkpt lat="48.72642" lon="1.93863">
        <ele>225</ele>
        <time>2020-06-03T18:14:40+02:00</time>
      </trkpt>
      <trkpt lat="48.72622" lon="1.93881">
        <ele>225</ele>
        <time>2020-06-03T18:14:55+02:00</time>
      </trkpt>
      <trkpt lat="48.72614" lon="1.93914">
        <ele>225</ele>
        <time>2020-06-03T18:15:11+02:00</time>
      </trkpt>
      <trkpt lat="48.72608" lon="1.93947">
        <ele>224</ele>
        <time>2020-06-03T18:15:30+02:00</time>
      </trkpt>
      <trkpt lat="48.72598" lon="1.93978">
        <ele>224</ele>
        <time>2020-06-03T18:15:48+02:00</time>
      </trkpt>
      <trkpt lat="48.72587" lon="1.94007">
        <ele>224</ele>
        <time>2020-06-03T18:16:07+02:00</time>
      </trkpt>
      <trkpt lat="48.7257" lon="1.94033">
        <ele>224</ele>
        <time>2020-06-03T18:16:26+02:00</time>
      </trkpt>
      <trkpt lat="48.72559" lon="1.94064">
        <ele>223</ele>
        <time>2020-06-03T18:16:48+02:00</time>
      </trkpt>
      <trkpt lat="48.7255" lon="1.94096">
        <ele>223</ele>
        <time>2020-06-03T18:17:06+02:00</time>
      </trkpt>
      <trkpt lat="48.72539" lon="1.94126">
        <ele>223</ele>
        <time>2020-06-03T18:17:27+02:00</time>
      </trkpt>
      <trkpt lat="48.72534" lon="1.94161">
        <ele>223</ele>
        <time>2020-06-03T18:17:45+02:00</time>
      </trkpt>
      <trkpt lat="48.72522" lon="1.94191">
        <ele>223</ele>
        <time>2020-06-03T18:18:03+02:00</time>
      </trkpt>
      <trkpt lat="48.72518" lon="1.94224">
        <ele>223</ele>
        <time>2020-06-03T18:18:22+02:00</time>
      </trkpt>
      <trkpt lat="48.72514" lon="1.94259">
        <ele>223</ele>
        <time>2020-06-03T18:18:40+02:00</time>
      </trkpt>
      <trkpt lat="48.72511" lon="1.94293">
        <ele>223</ele>
        <time>2020-06-03T18:19:03+02:00</time>
      </trkpt>
      <trkpt lat="48.72504" lon="1.94328">
        <ele>223</ele>
        <time>2020-06-03T18:19:23+02:00</time>
      </trkpt>
      <trkpt lat="48.72509" lon="1.94361">
        <ele>223</ele>
        <time>2020-06-03T18:19:45+02:00</time>
      </trkpt>
      <trkpt lat="48.72528" lon="1.94382">
        <ele>223</ele>
        <time>2020-06-03T18:19:59+02:00</time>
      </trkpt>
      <trkpt lat="48.72549" lon="1.944">
        <ele>223</ele>
        <time>2020-06-03T18:20:19+02:00</time>
      </trkpt>
      <trkpt lat="48.72564" lon="1.94425">
        <ele>223</ele>
        <time>2020-06-03T18:20:41+02:00</time>
      </trkpt>
      <trkpt lat="48.72578" lon="1.94453">
        <ele>223</ele>
        <time>2020-06-03T18:20:59+02:00</time>
      </trkpt>
      <trkpt lat="48.72593" lon="1.94479">
        <ele>222</ele>
        <time>2020-06-03T18:21:18+02:00</time>
      </trkpt>
      <trkpt lat="48.7261" lon="1.94502">
        <ele>222</ele>
        <time>2020-06-03T18:21:35+02:00</time>
      </trkpt>
      <trkpt lat="48.72634" lon="1.94509">
        <ele>221</ele>
        <time>2020-06-03T18:21:56+02:00</time>
      </trkpt>
      <trkpt lat="48.72656" lon="1.9452">
        <ele>220</ele>
        <time>2020-06-03T18:22:16+02:00</time>
      </trkpt>
      <trkpt lat="48.72671" lon="1.94545">
        <ele>219</ele>
        <time>2020-06-03T18:22:36+02:00</time>
      </trkpt>
      <trkpt lat="48.72681" lon="1.94576">
        <ele>219</ele>
        <time>2020-06-03T18:22:52+02:00</time>
      </trkpt>
      <trkpt lat="48.72692" lon="1.94606">
        <ele>218</ele>
        <time>2020-06-03T18:23:15+02:00</time>
      </trkpt>
      <trkpt lat="48.72708" lon="1.94631">
        <ele>218</ele>
        <time>2020-06-03T18:23:33+02:00</time>
      </trkpt>
      <trkpt lat="48.72723" lon="1.94658">
        <ele>217</ele>
        <time>2020-06-03T18:23:51+02:00</time>
      </trkpt>
      <trkpt lat="48.72739" lon="1.94683">
        <ele>217</ele>
        <time>2020-06-03T18:24:13+02:00</time>
      </trkpt>
      <trkpt lat="48.72755" lon="1.94709">
        <ele>217</ele>
        <time>2020-06-03T18:24:32+02:00</time>
      </trkpt>
      <trkpt lat="48.72772" lon="1.94731">
        <ele>217</ele>
        <time>2020-06-03T18:24:47+02:00</time>
      </trkpt>
      <trkpt lat="48.72789" lon="1.94753">
        <ele>217</ele>
        <time>2020-06-03T18:25:09+02:00</time>
      </trkpt>
      <trkpt lat="48.72809" lon="1.94771">
        <ele>216</ele>
        <time>2020-06-03T18:25:28+02:00</time>
      </trkpt>
      <trkpt lat="48.72829" lon="1.94788">
        <ele>216</ele>
        <time>2020-06-03T18:25:48+02:00</time>
      </trkpt>
      <trkpt lat="48.72851" lon="1.94798">
        <ele>216</ele>
        <time>2020-06-03T18:26:08+02:00</time>
      </trkpt>
      <trkpt lat="48.72869" lon="1.94819">
        <ele>216</ele>
        <time>2020-06-03T18:26:28+02:00</time>
      </trkpt>
      <trkpt lat="48.7289" lon="1.94838">
        <ele>215</ele>
        <time>2020-06-03T18:26:49+02:00</time>
      </trkpt>
      <trkpt lat="48.72908" lon="1.94858">
        <ele>215</ele>
        <time>2020-06-03T18:27:09+02:00</time>
      </trkpt>
      <trkpt lat="48.72929" lon="1.94877">
        <ele>215</ele>
        <time>2020-06-03T18:27:29+02:00</time>
      </trkpt>
      <trkpt lat="48.72948" lon="1.94896">
        <ele>215</ele>
        <time>2020-06-03T18:27:50+02:00</time>
      </trkpt>
      <trkpt lat="48.72969" lon="1.94911">
        <ele>214</ele>
        <time>2020-06-03T18:28:13+02:00</time>
      </trkpt>
      <trkpt lat="48.72987" lon="1.94932">
        <ele>214</ele>
        <time>2020-06-03T18:28:35+02:00</time>
      </trkpt>
      <trkpt lat="48.73004" lon="1.94956">
        <ele>213</ele>
        <time>2020-06-03T18:29:25+02:00</time>
      </trkpt>
      <trkpt lat="48.73015" lon="1.94927">
        <ele>212</ele>
        <time>2020-06-03T18:30:22+02:00</time>
      </trkpt>
      <trkpt lat="48.73031" lon="1.94902">
        <ele>212</ele>
        <time>2020-06-03T18:30:44+02:00</time>
      </trkpt>
      <trkpt lat="48.73047" lon="1.94877">
        <ele>211</ele>
        <time>2020-06-03T18:31:04+02:00</time>
      </trkpt>
      <trkpt lat="48.73063" lon="1.94851">
        <ele>211</ele>
        <time>2020-06-03T18:31:26+02:00</time>
      </trkpt>
      <trkpt lat="48.73078" lon="1.94825">
        <ele>211</ele>
        <time>2020-06-03T18:31:47+02:00</time>
      </trkpt>
      <trkpt lat="48.73095" lon="1.94801">
        <ele>211</ele>
        <time>2020-06-03T18:32:08+02:00</time>
      </trkpt>
      <trkpt lat="48.73112" lon="1.94779">
        <ele>211</ele>
        <time>2020-06-03T18:32:25+02:00</time>
      </trkpt>
      <trkpt lat="48.73131" lon="1.94757">
        <ele>211</ele>
        <time>2020-06-03T18:32:49+02:00</time>
      </trkpt>
      <trkpt lat="48.73148" lon="1.94735">
        <ele>211</ele>
        <time>2020-06-03T18:33:11+02:00</time>
      </trkpt>
      <trkpt lat="48.73161" lon="1.94705">
        <ele>211</ele>
        <time>2020-06-03T18:33:30+02:00</time>
      </trkpt>
      <trkpt lat="48.73179" lon="1.94682">
        <ele>210</ele>
        <time>2020-06-03T18:33:46+02:00</time>
      </trkpt>
      <trkpt lat="48.73197" lon="1.94662">
        <ele>210</ele>
        <time>2020-06-03T18:34:07+02:00</time>
      </trkpt>
      <trkpt lat="48.73216" lon="1.94642">
        <ele>210</ele>
        <time>2020-06-03T18:34:28+02:00</time>
      </trkpt>
      <trkpt lat="48.73233" lon="1.94619">
        <ele>210</ele>
        <time>2020-06-03T18:34:48+02:00</time>
      </trkpt>
      <trkpt lat="48.73248" lon="1.94593">
        <ele>210</ele>
        <time>2020-06-03T18:35:06+02:00</time>
      </trkpt>
      <trkpt lat="48.73256" lon="1.9456">
        <ele>210</ele>
        <time>2020-06-03T18:35:23+02:00</time>
      </trkpt>
      <trkpt lat="48.73269" lon="1.94531">
        <ele>210</ele>
        <time>2020-06-03T18:35:45+02:00</time>
      </trkpt>
      <trkpt lat="48.73279" lon="1.945">
        <ele>209</ele>
        <time>2020-06-03T18:36:05+02:00</time>
      </trkpt>
      <trkpt lat="48.7329" lon="1.94469">
        <ele>209</ele>
        <time>2020-06-03T18:36:26+02:00</time>
      </trkpt>
      <trkpt lat="48.73303" lon="1.94439">
        <ele>208</ele>
        <time>2020-06-03T18:36:46+02:00</time>
      </trkpt>
      <trkpt lat="48.73319" lon="1.94412">
        <ele>208</ele>
        <time>2020-06-03T18:37:08+02:00</time>
      </trkpt>
      <trkpt lat="48.73336" lon="1.94386">
        <ele>208</ele>
        <time>2020-06-03T18:37:27+02:00</time>
      </trkpt>
      <trkpt lat="48.73353" lon="1.94364">
        <ele>208</ele>
        <time>2020-06-03T18:37:44+02:00</time>
      </trkpt>
      <trkpt lat="48.73369" lon="1.9434">
        <ele>207</ele>
        <time>2020-06-03T18:38:03+02:00</time>
      </trkpt>
      <trkpt lat="48.73385" lon="1.94313">
        <ele>207</ele>
        <time>2020-06-03T18:38:26+02:00</time>
      </trkpt>
      <trkpt lat="48.73403" lon="1.94289">
        <ele>207</ele>
        <time>2020-06-03T18:38:45+02:00</time>
      </trkpt>
      <trkpt lat="48.73419" lon="1.94264">
        <ele>206</ele>
        <time>2020-06-03T18:39:04+02:00</time>
      </trkpt>
      <trkpt lat="48.73433" lon="1.94234">
        <ele>206</ele>
        <time>2020-06-03T18:39:21+02:00</time>
      </trkpt>
      <trkpt lat="48.73447" lon="1.94207">
        <ele>205</ele>
        <time>2020-06-03T18:40:27+02:00</time>
      </trkpt>
      <trkpt lat="48.7346" lon="1.94179">
        <ele>204</ele>
        <time>2020-06-03T18:40:50+02:00</time>
      </trkpt>
      <trkpt lat="48.73473" lon="1.94151">
        <ele>203</ele>
        <time>2020-06-03T18:41:14+02:00</time>
      </trkpt>
      <trkpt lat="48.73489" lon="1.94126">
        <ele>203</ele>
        <time>2020-06-03T18:41:32+02:00</time>
      </trkpt>
      <trkpt lat="48.73507" lon="1.94103">
        <ele>203</ele>
        <time>2020-06-03T18:41:55+02:00</time>
      </trkpt>
      <trkpt lat="48.73524" lon="1.9408">
        <ele>202</ele>
        <time>2020-06-03T18:42:28+02:00</time>
      </trkpt>
      <trkpt lat="48.73538" lon="1.94054">
        <ele>202</ele>
        <time>2020-06-03T18:42:52+02:00</time>
      </trkpt>
      <trkpt lat="48.73555" lon="1.94029">
        <ele>201</ele>
        <time>2020-06-03T18:43:13+02:00</time>
      </trkpt>
      <trkpt lat="48.73575" lon="1.94014">
        <ele>201</ele>
        <time>2020-06-03T18:43:28+02:00</time>
      </trkpt>
      <trkpt lat="48.73593" lon="1.93992">
        <ele>201</ele>
        <time>2020-06-03T18:43:47+02:00</time>
      </trkpt>
      <trkpt lat="48.73609" lon="1.93966">
        <ele>201</ele>
        <time>2020-06-03T18:44:07+02:00</time>
      </trkpt>
      <trkpt lat="48.73629" lon="1.9395">
        <ele>200</ele>
        <time>2020-06-03T18:44:26+02:00</time>
      </trkpt>
      <trkpt lat="48.73645" lon="1.93925">
        <ele>200</ele>
        <time>2020-06-03T18:44:45+02:00</time>
      </trkpt>
      <trkpt lat="48.73652" lon="1.93891">
        <ele>199</ele>
        <time>2020-06-03T18:45:09+02:00</time>
      </trkpt>
      <trkpt lat="48.73665" lon="1.93862">
        <ele>199</ele>
        <time>2020-06-03T18:45:28+02:00</time>
      </trkpt>
      <trkpt lat="48.73678" lon="1.93834">
        <ele>199</ele>
        <time>2020-06-03T18:45:47+02:00</time>
      </trkpt>
      <trkpt lat="48.7369" lon="1.93805">
        <ele>199</ele>
        <time>2020-06-03T18:46:10+02:00</time>
      </trkpt>
      <trkpt lat="48.73699" lon="1.93765">
        <ele>199</ele>
        <time>2020-06-03T18:46:36+02:00</time>
      </trkpt>
      <trkpt lat="48.73713" lon="1.93737">
        <ele>199</ele>
        <time>2020-06-03T18:46:53+02:00</time>
      </trkpt>
      <trkpt lat="48.73723" lon="1.93706">
        <ele>199</ele>
        <time>2020-06-03T18:47:17+02:00</time>
      </trkpt>
      <trkpt lat="48.73732" lon="1.93673">
        <ele>199</ele>
        <time>2020-06-03T18:47:33+02:00</time>
      </trkpt>
      <trkpt lat="48.73735" lon="1.93639">
        <ele>199</ele>
        <time>2020-06-03T18:48:01+02:00</time>
      </trkpt>
      <trkpt lat="48.73734" lon="1.93604">
        <ele>199</ele>
        <time>2020-06-03T18:48:18+02:00</time>
      </trkpt>
      <trkpt lat="48.73736" lon="1.93568">
        <ele>198</ele>
        <time>2020-06-03T18:48:40+02:00</time>
      </trkpt>
      <trkpt lat="48.73747" lon="1.93537">
        <ele>198</ele>
        <time>2020-06-03T18:49:03+02:00</time>
      </trkpt>
      <trkpt lat="48.73762" lon="1.9351">
        <ele>198</ele>
        <time>2020-06-03T18:49:25+02:00</time>
      </trkpt>
      <trkpt lat="48.73782" lon="1.93492">
        <ele>198</ele>
        <time>2020-06-03T18:49:45+02:00</time>
      </trkpt>
      <trkpt lat="48.73803" lon="1.93477">
        <ele>198</ele>
        <time>2020-06-03T18:50:05+02:00</time>
      </trkpt>
      <trkpt lat="48.73826" lon="1.93476">
        <ele>198</ele>
        <time>2020-06-03T18:50:23+02:00</time>
      </trkpt>
      <trkpt lat="48.73849" lon="1.93472">
        <ele>198</ele>
        <time>2020-06-03T18:50:42+02:00</time>
      </trkpt>
      <trkpt lat="48.73871" lon="1.93464">
        <ele>198</ele>
        <time>2020-06-03T18:51:06+02:00</time>
      </trkpt>
      <trkpt lat="48.7389" lon="1.93445">
        <ele>198</ele>
        <time>2020-06-03T18:51:36+02:00</time>
      </trkpt>
      <trkpt lat="48.73903" lon="1.93416">
        <ele>198</ele>
        <time>2020-06-03T18:51:54+02:00</time>
      </trkpt>
      <trkpt lat="48.73923" lon="1.93396">
        <ele>198</ele>
        <time>2020-06-03T18:52:15+02:00</time>
      </trkpt>
      <trkpt lat="48.73936" lon="1.93368">
        <ele>198</ele>
        <time>2020-06-03T18:52:37+02:00</time>
      </trkpt>
      <trkpt lat="48.73951" lon="1.93343">
        <ele>198</ele>
        <time>2020-06-03T18:53:08+02:00</time>
      </trkpt>
      <trkpt lat="48.73962" lon="1.93312">
        <ele>198</ele>
        <time>2020-06-03T18:53:29+02:00</time>
      </trkpt>
      <trkpt lat="48.73985" lon="1.93301">
        <ele>198</ele>
        <time>2020-06-03T18:53:47+02:00</time>
      </trkpt>
      <trkpt lat="48.74007" lon="1.93288">
        <ele>198</ele>
        <time>2020-06-03T18:54:14+02:00</time>
      </trkpt>
      <trkpt lat="48.74023" lon="1.93263">
        <ele>198</ele>
        <time>2020-06-03T18:54:32+02:00</time>
      </trkpt>
      <trkpt lat="48.74044" lon="1.93245">
        <ele>198</ele>
        <time>2020-06-03T18:54:52+02:00</time>
      </trkpt>
      <trkpt lat="48.74067" lon="1.93232">
        <ele>198</ele>
        <time>2020-06-03T18:55:17+02:00</time>
      </trkpt>
      <trkpt lat="48.7409" lon="1.9323">
        <ele>198</ele>
        <time>2020-06-03T18:55:37+02:00</time>
      </trkpt>
      <trkpt lat="48.74114" lon="1.93236">
        <ele>198</ele>
        <time>2020-06-03T18:55:55+02:00</time>
      </trkpt>
      <trkpt lat="48.74136" lon="1.93245">
        <ele>198</ele>
        <time>2020-06-03T18:56:09+02:00</time>
      </trkpt>
      <trkpt lat="48.74158" lon="1.93256">
        <ele>198</ele>
        <time>2020-06-03T18:56:29+02:00</time>
      </trkpt>
      <trkpt lat="48.74177" lon="1.93239">
        <ele>198</ele>
        <time>2020-06-03T18:56:55+02:00</time>
      </trkpt>
      <trkpt lat="48.74181" lon="1.93205">
        <ele>198</ele>
        <time>2020-06-03T18:57:23+02:00</time>
      </trkpt>
      <trkpt lat="48.74186" lon="1.93169">
        <ele>198</ele>
        <time>2020-06-03T18:57:39+02:00</time>
      </trkpt>
      <trkpt lat="48.74186" lon="1.93135">
        <ele>198</ele>
        <time>2020-06-03T18:57:58+02:00</time>
      </trkpt>
      <trkpt lat="48.74184" lon="1.931">
        <ele>198</ele>
        <time>2020-06-03T18:58:18+02:00</time>
      </trkpt>
      <trkpt lat="48.74185" lon="1.93065">
        <ele>198</ele>
        <time>2020-06-03T18:58:36+02:00</time>
      </trkpt>
      <trkpt lat="48.74191" lon="1.93031">
        <ele>198</ele>
        <time>2020-06-03T18:58:58+02:00</time>
      </trkpt>
      <trkpt lat="48.74203" lon="1.92999">
        <ele>198</ele>
        <time>2020-06-03T18:59:18+02:00</time>
      </trkpt>
      <trkpt lat="48.74211" lon="1.92967">
        <ele>197</ele>
        <time>2020-06-03T18:59:36+02:00</time>
      </trkpt>
      <trkpt lat="48.74216" lon="1.92933">
        <ele>197</ele>
        <time>2020-06-03T18:59:55+02:00</time>
      </trkpt>
      <trkpt lat="48.74226" lon="1.92902">
        <ele>197</ele>
        <time>2020-06-03T19:00:13+02:00</time>
      </trkpt>
      <trkpt lat="48.74242" lon="1.92877">
        <ele>197</ele>
        <time>2020-06-03T19:00:30+02:00</time>
      </trkpt>
      <trkpt lat="48.74253" lon="1.92848">
        <ele>197</ele>
        <time>2020-06-03T19:00:55+02:00</time>
      </trkpt>
      <trkpt lat="48.74265" lon="1.92818">
        <ele>198</ele>
        <time>2020-06-03T19:01:18+02:00</time>
      </trkpt>
      <trkpt lat="48.74276" lon="1.92787">
        <ele>198</ele>
        <time>2020-06-03T19:01:37+02:00</time>
      </trkpt>
      <trkpt lat="48.74294" lon="1.92765">
        <ele>198</ele>
        <time>2020-06-03T19:02:01+02:00</time>
      </trkpt>
      <trkpt lat="48.74315" lon="1.92753">
        <ele>198</ele>
        <time>2020-06-03T19:02:20+02:00</time>
      </trkpt>
      <trkpt lat="48.74308" lon="1.92719">
        <ele>199</ele>
        <time>2020-06-03T19:02:55+02:00</time>
      </trkpt>
      <trkpt lat="48.74287" lon="1.92702">
        <ele>199</ele>
        <time>2020-06-03T19:03:40+02:00</time>
      </trkpt>
      <trkpt lat="48.7427" lon="1.92679">
        <ele>200</ele>
        <time>2020-06-03T19:03:57+02:00</time>
      </trkpt>
      <trkpt lat="48.74259" lon="1.92648">
        <ele>200</ele>
        <time>2020-06-03T19:04:18+02:00</time>
      </trkpt>
      <trkpt lat="48.7425" lon="1.92616">
        <ele>201</ele>
        <time>2020-06-03T19:04:40+02:00</time>
      </trkpt>
      <trkpt lat="48.74244" lon="1.92582">
        <ele>201</ele>
        <time>2020-06-03T19:04:50+02:00</time>
      </trkpt>
      <trkpt lat="48.74234" lon="1.92549">
        <ele>201</ele>
        <time>2020-06-03T19:05:08+02:00</time>
      </trkpt>
      <trkpt lat="48.74226" lon="1.92516">
        <ele>202</ele>
        <time>2020-06-03T19:05:27+02:00</time>
      </trkpt>
      <trkpt lat="48.74213" lon="1.92488">
        <ele>203</ele>
        <time>2020-06-03T19:05:46+02:00</time>
      </trkpt>
      <trkpt lat="48.74215" lon="1.92453">
        <ele>203</ele>
        <time>2020-06-03T19:06:10+02:00</time>
      </trkpt>
      <trkpt lat="48.7423" lon="1.92426">
        <ele>204</ele>
        <time>2020-06-03T19:06:29+02:00</time>
      </trkpt>
      <trkpt lat="48.74244" lon="1.92396">
        <ele>205</ele>
        <time>2020-06-03T19:06:47+02:00</time>
      </trkpt>
      <trkpt lat="48.74256" lon="1.92366">
        <ele>205</ele>
        <time>2020-06-03T19:07:06+02:00</time>
      </trkpt>
      <trkpt lat="48.74272" lon="1.92339">
        <ele>206</ele>
        <time>2020-06-03T19:07:25+02:00</time>
      </trkpt>
      <trkpt lat="48.74289" lon="1.92318">
        <ele>206</ele>
        <time>2020-06-03T19:07:39+02:00</time>
      </trkpt>
      <trkpt lat="48.74292" lon="1.92282">
        <ele>207</ele>
        <time>2020-06-03T19:08:09+02:00</time>
      </trkpt>
      <trkpt lat="48.74297" lon="1.92249">
        <ele>207</ele>
        <time>2020-06-03T19:08:28+02:00</time>
      </trkpt>
      <trkpt lat="48.74308" lon="1.92219">
        <ele>208</ele>
        <time>2020-06-03T19:08:45+02:00</time>
      </trkpt>
      <trkpt lat="48.74324" lon="1.92193">
        <ele>208</ele>
        <time>2020-06-03T19:09:03+02:00</time>
      </trkpt>
      <trkpt lat="48.74341" lon="1.92169">
        <ele>208</ele>
        <time>2020-06-03T19:09:21+02:00</time>
      </trkpt>
      <trkpt lat="48.74352" lon="1.92139">
        <ele>208</ele>
        <time>2020-06-03T19:09:41+02:00</time>
      </trkpt>
      <trkpt lat="48.7438" lon="1.92136">
        <ele>210</ele>
        <time>2020-06-03T19:10:32+02:00</time>
      </trkpt>
      <trkpt lat="48.74401" lon="1.92122">
        <ele>210</ele>
        <time>2020-06-03T19:10:59+02:00</time>
      </trkpt>
      <trkpt lat="48.74418" lon="1.92099">
        <ele>210</ele>
        <time>2020-06-03T19:11:22+02:00</time>
      </trkpt>
      <trkpt lat="48.7444" lon="1.92088">
        <ele>210</ele>
        <time>2020-06-03T19:11:40+02:00</time>
      </trkpt>
      <trkpt lat="48.74462" lon="1.92092">
        <ele>211</ele>
        <time>2020-06-03T19:11:58+02:00</time>
      </trkpt>
      <trkpt lat="48.74482" lon="1.92074">
        <ele>211</ele>
        <time>2020-06-03T19:12:23+02:00</time>
      </trkpt>
      <trkpt lat="48.74497" lon="1.92049">
        <ele>211</ele>
        <time>2020-06-03T19:12:39+02:00</time>
      </trkpt>
      <trkpt lat="48.74514" lon="1.92024">
        <ele>211</ele>
        <time>2020-06-03T19:13:01+02:00</time>
      </trkpt>
      <trkpt lat="48.74532" lon="1.92">
        <ele>211</ele>
        <time>2020-06-03T19:13:19+02:00</time>
      </trkpt>
      <trkpt lat="48.74551" lon="1.91978">
        <ele>211</ele>
        <time>2020-06-03T19:13:42+02:00</time>
      </trkpt>
      <trkpt lat="48.74567" lon="1.91953">
        <ele>212</ele>
        <time>2020-06-03T19:14:02+02:00</time>
      </trkpt>
      <trkpt lat="48.74623" lon="1.91952">
        <ele>212</ele>
        <time>2020-06-03T19:14:40+02:00</time>
      </trkpt>
      <trkpt lat="48.7461" lon="1.91922">
        <ele>212</ele>
        <time>2020-06-03T19:14:54+02:00</time>
      </trkpt>
      <trkpt lat="48.74609" lon="1.91887">
        <ele>213</ele>
        <time>2020-06-03T19:15:15+02:00</time>
      </trkpt>
      <trkpt lat="48.74627" lon="1.91866">
        <ele>214</ele>
        <time>2020-06-03T19:15:37+02:00</time>
      </trkpt>
      <trkpt lat="48.74643" lon="1.91842">
        <ele>215</ele>
        <time>2020-06-03T19:16:01+02:00</time>
      </trkpt>
      <trkpt lat="48.74661" lon="1.91818">
        <ele>216</ele>
        <time>2020-06-03T19:16:18+02:00</time>
      </trkpt>
      <trkpt lat="48.74679" lon="1.91796">
        <ele>216</ele>
        <time>2020-06-03T19:16:41+02:00</time>
      </trkpt>
      <trkpt lat="48.747" lon="1.91778">
        <ele>217</ele>
        <time>2020-06-03T19:16:57+02:00</time>
      </trkpt>
      <trkpt lat="48.74721" lon="1.91763">
        <ele>217</ele>
        <time>2020-06-03T19:17:13+02:00</time>
      </trkpt>
      <trkpt lat="48.74737" lon="1.91737">
        <ele>217</ele>
        <time>2020-06-03T19:17:31+02:00</time>
      </trkpt>
      <trkpt lat="48.74754" lon="1.91714">
        <ele>217</ele>
        <time>2020-06-03T19:17:59+02:00</time>
      </trkpt>
      <trkpt lat="48.74778" lon="1.91715">
        <ele>218</ele>
        <time>2020-06-03T19:18:12+02:00</time>
      </trkpt>
      <trkpt lat="48.74801" lon="1.91725">
        <ele>218</ele>
        <time>2020-06-03T19:18:23+02:00</time>
      </trkpt>
      <trkpt lat="48.74817" lon="1.91701">
        <ele>218</ele>
        <time>2020-06-03T19:18:37+02:00</time>
      </trkpt>
      <trkpt lat="48.74829" lon="1.91669">
        <ele>218</ele>
        <time>2020-06-03T19:18:56+02:00</time>
      </trkpt>
      <trkpt lat="48.74847" lon="1.91648">
        <ele>218</ele>
        <time>2020-06-03T19:19:18+02:00</time>
      </trkpt>
      <trkpt lat="48.74864" lon="1.91626">
        <ele>218</ele>
        <time>2020-06-03T19:19:45+02:00</time>
      </trkpt>
      <trkpt lat="48.74885" lon="1.91609">
        <ele>218</ele>
        <time>2020-06-03T19:20:07+02:00</time>
      </trkpt>
      <trkpt lat="48.74905" lon="1.91594">
        <ele>218</ele>
        <time>2020-06-03T19:20:28+02:00</time>
      </trkpt>
      <trkpt lat="48.74928" lon="1.91585">
        <ele>218</ele>
        <time>2020-06-03T19:20:39+02:00</time>
      </trkpt>
      <trkpt lat="48.74951" lon="1.91583">
        <ele>217</ele>
        <time>2020-06-03T19:21:13+02:00</time>
      </trkpt>
      <trkpt lat="48.74972" lon="1.91567">
        <ele>217</ele>
        <time>2020-06-03T19:21:24+02:00</time>
      </trkpt>
      <trkpt lat="48.74996" lon="1.91563">
        <ele>217</ele>
        <time>2020-06-03T19:21:38+02:00</time>
      </trkpt>
      <trkpt lat="48.75017" lon="1.9155">
        <ele>216</ele>
        <time>2020-06-03T19:21:58+02:00</time>
      </trkpt>
      <trkpt lat="48.7504" lon="1.91551">
        <ele>216</ele>
        <time>2020-06-03T19:22:18+02:00</time>
      </trkpt>
      <trkpt lat="48.75056" lon="1.91576">
        <ele>216</ele>
        <time>2020-06-03T19:22:34+02:00</time>
      </trkpt>
      <trkpt lat="48.75068" lon="1.91605">
        <ele>216</ele>
        <time>2020-06-03T19:22:54+02:00</time>
      </trkpt>
      <trkpt lat="48.75083" lon="1.9163">
        <ele>217</ele>
        <time>2020-06-03T19:23:12+02:00</time>
      </trkpt>
    </trkseg>
  </trk>
</gpx>